Time;durP1;ratioP1;P1;durP2;ratioP2;P2;SDS_P1;SDS_P2;PMS_P1;PMS_P2;Temp;Humidity;BMP_temperature;BMP_pressure;BME280_temperature;BME280_humidity;BME280_pressure;Samples;Min_cycle;Max_cycle;Signal;HPM_P1;HPM_P2
2023/04/25 00:01:59;;;;;;;18.40;4.32;;;9.00;99.90;;;;;;5035375;28;20393;-83
2023/04/25 00:04:26;;;;;;;15.82;3.75;;;9.00;99.90;;;;;;5035074;28;20030;-83
2023/04/25 00:06:53;;;;;;;19.58;3.75;;;9.00;99.90;;;;;;5034853;28;20037;-83
2023/04/25 00:09:19;;;;;;;13.60;4.10;;;9.10;99.90;;;;;;5034775;28;20044;-82
2023/04/25 00:11:45;;;;;;;16.05;4.53;;;9.00;99.90;;;;;;5035488;28;20128;-82
2023/04/25 00:14:10;;;;;;;21.65;4.25;;;9.10;99.90;;;;;;5034314;28;20436;-83
2023/04/25 00:16:36;;;;;;;12.40;3.20;;;9.10;99.90;;;;;;5034881;28;20056;-83
2023/04/25 00:19:02;;;;;;;22.35;5.10;;;9.10;99.90;;;;;;5034174;28;20021;-83
2023/04/25 00:21:28;;;;;;;12.27;3.70;;;9.10;99.90;;;;;;5034560;28;20029;-83
2023/04/25 00:23:55;;;;;;;11.70;3.40;;;9.10;99.90;;;;;;5035325;28;20025;-83
2023/04/25 00:26:20;;;;;;;12.25;3.55;;;9.10;99.90;;;;;;5034788;28;20029;-83
2023/04/25 00:28:47;;;;;;;17.42;3.92;;;9.10;99.90;;;;;;5034206;28;20032;-83
2023/04/25 00:31:12;;;;;;;21.73;4.28;;;9.10;99.90;;;;;;5034394;28;20389;-83
2023/04/25 00:33:38;;;;;;;21.15;3.75;;;9.10;99.90;;;;;;5034825;28;20040;-83
2023/04/25 00:36:04;;;;;;;20.30;4.15;;;9.10;99.90;;;;;;5033983;28;20063;-83
2023/04/25 00:38:29;;;;;;;20.92;3.63;;;9.10;99.90;;;;;;5034750;28;20377;-83
2023/04/25 00:40:55;;;;;;;16.92;3.33;;;9.10;99.90;;;;;;5034722;28;20121;-83
2023/04/25 00:43:21;;;;;;;22.63;3.90;;;9.10;99.90;;;;;;5033704;28;20018;-83
2023/04/25 00:45:48;;;;;;;13.82;3.38;;;9.10;99.90;;;;;;5034545;28;20084;-83
2023/04/25 00:48:14;;;;;;;21.98;4.47;;;9.10;99.90;;;;;;5034266;28;20087;-84
2023/04/25 00:50:40;;;;;;;19.85;3.38;;;9.10;99.90;;;;;;5034050;28;20461;-83
2023/04/25 00:53:06;;;;;;;21.77;5.07;;;9.10;99.90;;;;;;5034449;28;20018;-83
2023/04/25 00:55:32;;;;;;;26.98;4.70;;;9.00;99.90;;;;;;5034023;28;20061;-82
2023/04/25 00:57:58;;;;;;;18.10;3.85;;;9.00;99.90;;;;;;5032725;28;20043;-83
2023/04/25 01:00:23;;;;;;;19.05;4.25;;;9.10;99.90;;;;;;5033933;28;20025;-83
2023/04/25 01:02:50;;;;;;;12.02;3.40;;;9.10;99.90;;;;;;5033310;28;20069;-83
2023/04/25 01:05:15;;;;;;;12.52;4.63;;;9.00;99.90;;;;;;5034311;28;20045;-83
2023/04/25 01:07:41;;;;;;;27.00;3.88;;;9.00;99.90;;;;;;5034514;28;20531;-82
2023/04/25 01:10:07;;;;;;;18.10;4.15;;;9.00;99.90;;;;;;5033501;28;20293;-83
2023/04/25 01:12:33;;;;;;;13.75;4.38;;;9.00;99.90;;;;;;5017596;28;20500;-83
2023/04/25 01:14:59;;;;;;;13.48;3.63;;;9.00;99.90;;;;;;5014328;28;20030;-82
2023/04/25 01:17:24;;;;;;;18.15;3.65;;;8.90;99.90;;;;;;5012833;28;20034;-83
2023/04/25 01:19:51;;;;;;;17.35;4.18;;;8.90;99.90;;;;;;5014152;28;20729;-83
2023/04/25 01:22:17;;;;;;;17.05;3.22;;;9.00;99.90;;;;;;5013978;28;20029;-83
2023/04/25 01:24:43;;;;;;;11.73;3.55;;;9.00;99.90;;;;;;5013691;28;20029;-83
2023/04/25 01:27:09;;;;;;;14.23;2.92;;;9.00;99.90;;;;;;5013980;28;20030;-82
2023/04/25 01:29:37;;;;;;;18.40;3.80;;;9.00;99.90;;;;;;5013914;28;20030;-83
2023/04/25 01:32:03;;;;;;;22.08;3.70;;;9.00;99.90;;;;;;5012710;28;20022;-83
2023/04/25 01:34:29;;;;;;;23.48;4.15;;;9.00;99.90;;;;;;5022354;28;20060;-82
2023/04/25 01:36:55;;;;;;;14.65;4.10;;;8.90;99.90;;;;;;5033434;28;20116;-83
2023/04/25 01:39:20;;;;;;;14.32;3.33;;;9.00;99.90;;;;;;5032592;28;20013;-83
2023/04/25 01:41:47;;;;;;;14.23;3.25;;;9.00;99.90;;;;;;5033660;28;20473;-82
2023/04/25 01:44:13;;;;;;;15.02;3.55;;;9.00;99.90;;;;;;5033262;28;20049;-83
2023/04/25 01:46:39;;;;;;;12.18;3.30;;;9.00;99.90;;;;;;5032420;28;20029;-83
2023/04/25 01:49:05;;;;;;;17.92;4.63;;;9.00;99.90;;;;;;5032790;28;20044;-83
2023/04/25 01:51:31;;;;;;;17.55;4.03;;;9.10;99.90;;;;;;5033576;28;20080;-82
2023/04/25 01:53:57;;;;;;;14.43;3.10;;;9.00;99.90;;;;;;5018524;28;20109;-82
2023/04/25 01:56:23;;;;;;;16.00;3.40;;;9.00;99.90;;;;;;5012694;28;20042;-82
2023/04/25 01:58:49;;;;;;;13.43;3.33;;;8.90;99.90;;;;;;5013556;28;20388;-82
2023/04/25 02:01:14;;;;;;;15.93;3.60;;;8.80;99.90;;;;;;5012056;28;20385;-82
2023/04/25 02:03:40;;;;;;;14.38;3.55;;;8.80;99.90;;;;;;5012912;28;20466;-82
2023/04/25 02:06:06;;;;;;;21.17;3.13;;;8.90;99.90;;;;;;5012792;28;20033;-83
2023/04/25 02:08:31;;;;;;;18.35;3.83;;;8.80;99.90;;;;;;5013501;28;20034;-82
2023/04/25 02:10:57;;;;;;;13.05;3.40;;;8.80;99.90;;;;;;5013923;28;20389;-82
2023/04/25 02:13:23;;;;;;;17.63;3.25;;;8.80;99.90;;;;;;5012255;28;20018;-82
2023/04/25 02:15:48;;;;;;;13.57;3.55;;;8.80;99.90;;;;;;5012996;28;20029;-81
2023/04/25 02:18:16;;;;;;;10.77;3.30;;;8.70;99.90;;;;;;5012495;28;20128;-81
2023/04/25 02:20:42;;;;;;;23.13;3.25;;;8.80;99.90;;;;;;5012684;28;20037;-82
2023/04/25 02:23:07;;;;;;;14.20;3.13;;;8.80;99.90;;;;;;5012949;28;20030;-82
2023/04/25 02:25:33;;;;;;;15.43;3.28;;;8.80;99.90;;;;;;5012987;28;20052;-82
2023/04/25 02:27:58;;;;;;;11.02;3.17;;;8.90;99.90;;;;;;5012331;28;20041;-81
2023/04/25 02:30:24;;;;;;;14.18;3.75;;;8.70;99.90;;;;;;5012651;28;20033;-82
2023/04/25 02:32:50;;;;;;;14.68;3.90;;;8.70;99.90;;;;;;5012399;28;20088;-82
2023/04/25 02:35:16;;;;;;;17.92;3.55;;;8.70;99.90;;;;;;5017338;28;20064;-81
2023/04/25 02:37:42;;;;;;;14.48;4.05;;;8.70;99.90;;;;;;5032504;28;20038;-82
2023/04/25 02:40:08;;;;;;;11.90;3.92;;;8.70;99.90;;;;;;5032406;28;20034;-82
2023/04/25 02:42:33;;;;;;;18.23;3.47;;;8.70;99.90;;;;;;5031602;28;20503;-82
2023/04/25 02:44:59;;;;;;;17.02;3.47;;;8.70;99.90;;;;;;5032281;28;20100;-82
2023/04/25 02:47:25;;;;;;;21.20;4.72;;;8.60;99.90;;;;;;5031953;28;20469;-82
2023/04/25 02:49:50;;;;;;;11.80;3.50;;;8.60;99.90;;;;;;5031050;28;20132;-81
2023/04/25 02:52:16;;;;;;;17.02;3.42;;;8.60;99.90;;;;;;5032151;28;20063;-81
2023/04/25 02:54:41;;;;;;;10.65;2.95;;;8.70;99.90;;;;;;5031763;28;20091;-81
2023/04/25 02:57:07;;;;;;;21.88;4.18;;;8.70;99.90;;;;;;5031449;28;20464;-82
2023/04/25 02:59:33;;;;;;;13.95;3.92;;;8.70;99.90;;;;;;5032055;28;20025;-82
2023/04/25 03:01:58;;;;;;;15.48;3.72;;;8.70;99.90;;;;;;5032355;28;20112;-82
2023/04/25 03:04:24;;;;;;;8.45;3.70;;;8.70;99.90;;;;;;5031142;28;20108;-82
2023/04/25 03:06:50;;;;;;;11.52;3.63;;;8.70;99.90;;;;;;5031904;28;20022;-81
2023/04/25 03:09:16;;;;;;;14.40;3.50;;;8.70;99.90;;;;;;5031928;28;20029;-81
2023/04/25 03:11:43;;;;;;;15.95;3.60;;;8.70;99.90;;;;;;5031253;28;20108;-82
2023/04/25 03:14:09;;;;;;;16.40;3.70;;;8.70;99.90;;;;;;5031678;28;20053;-82
2023/04/25 03:16:35;;;;;;;12.48;3.63;;;8.70;99.90;;;;;;5031366;28;20037;-82
2023/04/25 03:19:01;;;;;;;16.90;4.55;;;8.70;99.90;;;;;;5031307;28;20032;-81
2023/04/25 03:21:27;;;;;;;15.00;3.55;;;8.70;99.90;;;;;;5034290;28;20028;-81
2023/04/25 03:23:53;;;;;;;14.18;3.63;;;8.70;99.90;;;;;;5031498;28;20465;-81
2023/04/25 03:26:18;;;;;;;11.35;3.83;;;8.70;99.90;;;;;;5031579;28;20021;-81
2023/04/25 03:28:44;;;;;;;18.10;4.43;;;8.70;99.90;;;;;;5031837;28;20030;-81
2023/04/25 03:31:09;;;;;;;11.35;4.25;;;8.60;99.90;;;;;;5031317;28;20021;-81
2023/04/25 03:33:35;;;;;;;12.55;4.22;;;8.60;99.90;;;;;;5031689;28;20378;-82
2023/04/25 03:36:00;;;;;;;14.35;3.88;;;8.70;99.90;;;;;;5018509;28;20036;-82
2023/04/25 03:38:26;;;;;;;10.95;3.28;;;8.70;99.90;;;;;;5011451;28;20034;-82
2023/04/25 03:40:51;;;;;;;12.77;3.50;;;8.70;99.90;;;;;;5012211;28;20523;-83
2023/04/25 03:43:17;;;;;;;14.45;3.53;;;8.70;99.90;;;;;;5011641;28;20544;-82
2023/04/25 03:45:43;;;;;;;17.60;2.90;;;8.50;99.90;;;;;;5010777;28;20022;-82
2023/04/25 03:48:08;;;;;;;10.15;2.58;;;8.40;99.90;;;;;;5011413;28;20478;-82
2023/04/25 03:50:34;;;;;;;16.35;2.80;;;8.30;99.90;;;;;;5011847;28;20117;-82
2023/04/25 03:53:00;;;;;;;13.60;3.35;;;8.30;99.90;;;;;;5010216;28;20033;-81
2023/04/25 03:55:25;;;;;;;16.85;2.25;;;8.10;99.90;;;;;;5011578;28;20060;-81
2023/04/25 03:57:51;;;;;;;13.35;3.13;;;8.30;99.90;;;;;;5011855;28;20088;-81
2023/04/25 04:00:16;;;;;;;13.77;2.00;;;8.30;99.90;;;;;;5010273;28;20061;-81
2023/04/25 04:02:42;;;;;;;9.02;2.30;;;8.30;99.90;;;;;;5011689;28;20308;-81
2023/04/25 04:05:08;;;;;;;11.63;2.45;;;8.50;99.90;;;;;;5011841;28;20022;-81
2023/04/25 04:07:36;;;;;;;13.75;2.75;;;8.50;99.90;;;;;;5011029;28;20026;-82
2023/04/25 04:10:02;;;;;;;17.98;3.10;;;8.60;99.90;;;;;;5011262;28;20486;-82
2023/04/25 04:12:27;;;;;;;13.43;2.75;;;8.60;99.90;;;;;;5011330;28;20037;-82
2023/04/25 04:14:53;;;;;;;8.27;2.60;;;8.60;99.90;;;;;;5010861;28;20040;-81
2023/04/25 04:17:18;;;;;;;15.38;3.22;;;8.60;99.90;;;;;;5011195;28;20049;-83
2023/04/25 04:19:44;;;;;;;9.05;1.98;;;8.70;99.90;;;;;;5010965;28;20397;-83
2023/04/25 04:22:10;;;;;;;18.67;2.88;;;8.70;99.90;;;;;;5011615;28;20381;-81
2023/04/25 04:24:35;;;;;;;9.73;3.08;;;8.70;99.90;;;;;;5011841;28;20081;-83
2023/04/25 04:27:01;;;;;;;8.95;2.38;;;8.80;99.90;;;;;;5010768;28;20412;-83
2023/04/25 04:29:27;;;;;;;10.35;2.67;;;8.80;99.90;;;;;;5011679;28;20030;-84
2023/04/25 04:31:52;;;;;;;8.52;2.22;;;8.70;99.90;;;;;;5012492;28;20029;-83
2023/04/25 04:34:18;;;;;;;11.00;2.20;;;8.70;99.90;;;;;;5013790;28;20065;-84
2023/04/25 04:36:47;;;;;;;16.77;3.55;;;8.60;99.90;;;;;;5015142;28;20030;-83
2023/04/25 04:39:13;;;;;;;15.05;3.03;;;8.50;99.90;;;;;;5014894;28;20026;-83
2023/04/25 04:41:39;;;;;;;7.00;1.88;;;8.50;99.90;;;;;;5014307;28;20029;-83
2023/04/25 04:44:06;;;;;;;13.88;2.85;;;8.40;99.90;;;;;;5014719;28;20034;-81
2023/04/25 04:46:37;;;;;;;9.10;2.28;;;8.40;99.90;;;;;;5014971;28;20037;-83
2023/04/25 04:49:04;;;;;;;18.20;2.95;;;8.20;99.90;;;;;;5013426;28;20022;-83
2023/04/25 04:51:31;;;;;;;7.28;2.03;;;8.10;99.90;;;;;;5014208;28;20053;-83
2023/04/25 04:53:58;;;;;;;9.63;2.10;;;8.00;99.90;;;;;;5014727;28;20454;-83
2023/04/25 04:56:25;;;;;;;8.88;1.88;;;8.00;99.90;;;;;;5013503;28;20085;-83
2023/04/25 04:58:51;;;;;;;13.55;2.22;;;8.00;99.90;;;;;;5015042;28;20030;-83
2023/04/25 05:01:16;;;;;;;14.57;1.90;;;7.90;99.90;;;;;;5014585;28;20391;-83
2023/04/25 05:03:42;;;;;;;10.27;2.78;;;7.90;99.90;;;;;;5013696;28;20401;-83
2023/04/25 05:06:08;;;;;;;12.77;2.58;;;7.90;99.90;;;;;;5014184;28;20251;-83
2023/04/25 05:08:34;;;;;;;10.93;1.80;;;7.80;99.90;;;;;;5014471;28;20071;-83
2023/04/25 05:10:59;;;;;;;8.20;2.22;;;7.70;99.90;;;;;;5013686;28;20543;-82
2023/04/25 05:13:25;;;;;;;11.40;2.92;;;7.70;99.90;;;;;;5014286;28;20022;-82
2023/04/25 05:15:50;;;;;;;5.45;1.98;;;7.70;99.90;;;;;;5014575;28;20022;-83
2023/04/25 05:18:16;;;;;;;12.05;2.22;;;7.70;99.90;;;;;;5013013;28;20034;-83
2023/04/25 05:20:42;;;;;;;11.63;2.35;;;7.70;99.90;;;;;;5014189;28;20050;-82
2023/04/25 05:23:07;;;;;;;6.15;1.80;;;7.80;99.90;;;;;;5013169;28;20366;-82
2023/04/25 05:25:33;;;;;;;7.80;1.85;;;7.80;99.90;;;;;;5014218;28;20452;-82
2023/04/25 05:27:59;;;;;;;14.23;2.45;;;7.90;99.90;;;;;;5014213;28;20088;-82
2023/04/25 05:30:24;;;;;;;11.90;2.38;;;7.90;99.90;;;;;;5013507;28;20046;-82
2023/04/25 05:32:50;;;;;;;9.45;2.00;;;8.00;99.90;;;;;;5013714;28;20471;-82
2023/04/25 05:35:16;;;;;;;11.35;2.17;;;8.10;99.90;;;;;;5013715;28;20130;-83
2023/04/25 05:37:49;;;;;;;11.23;1.75;;;8.30;99.90;;;;;;5012686;28;20049;-82
2023/04/25 05:40:14;;;;;;;6.20;2.05;;;8.80;99.90;;;;;;5013316;28;20061;-83
2023/04/25 05:42:40;;;;;;;13.38;2.88;;;8.30;99.90;;;;;;5013487;28;20057;-83
2023/04/25 05:45:06;;;;;;;9.38;2.40;;;8.30;99.90;;;;;;5012195;28;20041;-82
2023/04/25 05:47:34;;;;;;;5.18;1.85;;;8.40;99.90;;;;;;5011939;28;20088;-82
2023/04/25 05:50:00;;;;;;;7.97;2.15;;;8.40;99.90;;;;;;5002089;28;20022;-82
2023/04/25 05:52:25;;;;;;;7.15;1.70;;;8.40;99.90;;;;;;5002319;28;20056;-81
2023/04/25 05:54:51;;;;;;;9.90;1.85;;;8.40;99.90;;;;;;5004302;28;20045;-82
2023/04/25 05:57:27;;;;;;;7.38;2.30;;;8.50;99.90;;;;;;5002026;28;20631;-82
2023/04/25 05:59:53;;;;;;;10.27;1.92;;;8.50;99.90;;;;;;4994570;28;20026;-82
2023/04/25 06:02:22;;;;;;;9.02;2.22;;;8.60;99.90;;;;;;4998152;28;20031;-83
2023/04/25 06:04:51;;;;;;;8.43;2.00;;;8.50;99.90;;;;;;5001993;28;20019;-83
2023/04/25 06:07:17;;;;;;;14.18;2.30;;;8.50;99.90;;;;;;5001980;28;20027;-82
2023/04/25 06:09:43;;;;;;;6.60;1.30;;;8.40;99.90;;;;;;5000939;28;20049;-83
2023/04/25 06:12:09;;;;;;;8.90;1.92;;;8.40;99.90;;;;;;5002921;28;20109;-82
2023/04/25 06:14:35;;;;;;;8.10;1.40;;;8.30;99.90;;;;;;5003161;28;20101;-83
2023/04/25 06:17:06;;;;;;;14.15;1.90;;;8.20;99.90;;;;;;5001687;28;20046;-82
2023/04/25 06:19:32;;;;;;;5.85;1.73;;;8.10;99.90;;;;;;5001486;28;20036;-82
2023/04/25 06:21:58;;;;;;;7.22;1.70;;;8.10;99.90;;;;;;5003666;28;20105;-83
2023/04/25 06:24:24;;;;;;;4.28;1.55;;;8.20;99.90;;;;;;5002021;28;20740;-83
2023/04/25 06:26:49;;;;;;;6.80;1.70;;;8.10;99.90;;;;;;5001671;28;20018;-83
2023/04/25 06:29:15;;;;;;;15.63;2.17;;;8.20;99.90;;;;;;5003505;28;20041;-83
2023/04/25 06:31:40;;;;;;;8.38;1.80;;;8.20;99.90;;;;;;5000886;28;20022;-82
2023/04/25 06:34:06;;;;;;;6.30;2.15;;;8.30;99.90;;;;;;5001235;28;20038;-82
2023/04/25 06:36:32;;;;;;;7.32;1.98;;;8.40;99.90;;;;;;5001858;28;20045;-82
2023/04/25 06:38:57;;;;;;;6.32;1.67;;;8.40;99.90;;;;;;5003616;28;20620;-82
2023/04/25 06:41:23;;;;;;;7.80;1.75;;;8.40;99.90;;;;;;5001268;28;20022;-83
2023/04/25 06:43:49;;;;;;;7.80;1.73;;;8.30;99.90;;;;;;5004346;28;20386;-83
2023/04/25 06:46:14;;;;;;;5.05;1.25;;;8.40;99.90;;;;;;5003997;28;20038;-83
2023/04/25 06:48:40;;;;;;;8.07;2.15;;;8.40;99.90;;;;;;5000282;28;20152;-82
2023/04/25 06:51:05;;;;;;;5.50;1.20;;;8.30;99.90;;;;;;4998241;28;20030;-83
2023/04/25 06:53:31;;;;;;;2.70;1.13;;;8.30;99.90;;;;;;4998412;28;20503;-82
2023/04/25 06:55:57;;;;;;;6.07;1.30;;;8.30;99.90;;;;;;4999699;28;20038;-81
2023/04/25 06:58:22;;;;;;;4.45;1.20;;;8.30;99.90;;;;;;4996380;28;20022;-82
2023/04/25 07:00:48;;;;;;;7.90;2.05;;;8.40;99.90;;;;;;4995694;28;20053;-82
2023/04/25 07:03:13;;;;;;;8.38;1.40;;;8.40;99.90;;;;;;4998728;28;20112;-82
2023/04/25 07:05:39;;;;;;;10.40;1.88;;;8.40;99.90;;;;;;5007299;28;20366;-82
2023/04/25 07:08:05;;;;;;;4.78;1.30;;;8.40;99.90;;;;;;5007359;28;20022;-83
2023/04/25 07:10:30;;;;;;;4.85;0.95;;;8.50;99.90;;;;;;5006880;28;20104;-83
2023/04/25 07:12:56;;;;;;;5.93;1.50;;;8.50;99.90;;;;;;5002870;28;20018;-83
2023/04/25 07:15:21;;;;;;;3.15;0.90;;;8.60;99.90;;;;;;4994377;28;20434;-84
2023/04/25 07:17:47;;;;;;;4.88;1.33;;;8.60;99.90;;;;;;4991512;28;20034;-83
2023/04/25 07:20:13;;;;;;;4.82;1.20;;;8.60;99.90;;;;;;4992383;28;20031;-85
2023/04/25 07:22:38;;;;;;;5.68;1.25;;;8.60;99.90;;;;;;4991599;28;20034;-85
2023/04/25 07:25:05;;;;;;;5.05;1.33;;;8.60;99.90;;;;;;4992561;28;20026;-82
2023/04/25 07:27:30;;;;;;;4.25;1.10;;;8.60;99.90;;;;;;4992159;28;20026;-84
2023/04/25 07:29:57;;;;;;;7.03;1.77;;;8.70;99.90;;;;;;4997596;28;20141;-83
2023/04/25 07:32:22;;;;;;;5.40;1.42;;;8.70;99.90;;;;;;4991619;28;20053;-85
2023/04/25 07:34:48;;;;;;;7.00;2.03;;;8.80;99.90;;;;;;4991198;28;20034;-84
2023/04/25 07:37:14;;;;;;;5.97;1.23;;;8.80;99.90;;;;;;4991643;28;20482;-84
2023/04/25 07:39:40;;;;;;;7.68;1.40;;;8.80;99.90;;;;;;4992376;28;20111;-87
2023/04/25 07:42:08;;;;;;;7.32;2.20;;;8.80;99.90;;;;;;4992628;28;20058;-83
2023/04/25 07:44:38;;;;;;;6.40;1.50;;;8.80;99.90;;;;;;4991872;28;20026;-84
2023/04/25 07:47:06;;;;;;;9.25;2.30;;;8.90;99.90;;;;;;4991735;28;20030;-84
2023/04/25 07:49:36;;;;;;;11.73;2.13;;;8.90;99.90;;;;;;4997403;28;20046;-84
2023/04/25 07:52:03;;;;;;;5.50;1.50;;;8.80;99.90;;;;;;4995870;28;20072;-84
2023/04/25 07:54:28;;;;;;;7.50;2.05;;;8.80;99.90;;;;;;4997278;28;20061;-84
2023/04/25 07:56:54;;;;;;;8.30;2.13;;;8.70;99.90;;;;;;4992332;28;20462;-85
2023/04/25 07:59:20;;;;;;;16.15;2.50;;;8.80;99.90;;;;;;4991841;28;20030;-84
2023/04/25 08:01:45;;;;;;;7.13;2.30;;;9.20;99.90;;;;;;4992419;28;20022;-81
2023/04/25 08:04:11;;;;;;;5.90;1.40;;;8.70;99.90;;;;;;4991755;28;20058;-85
2023/04/25 08:06:37;;;;;;;4.90;1.88;;;8.70;99.90;;;;;;4993616;28;20039;-84
2023/04/25 08:09:02;;;;;;;9.32;1.75;;;8.70;99.90;;;;;;4995655;28;20023;-83
2023/04/25 08:11:29;;;;;;;11.60;1.67;;;8.70;99.90;;;;;;5005257;28;20060;-84
2023/04/25 08:13:54;;;;;;;5.75;1.90;;;8.70;99.90;;;;;;5014209;28;20072;-83
2023/04/25 08:16:20;;;;;;;8.32;2.13;;;8.60;99.90;;;;;;5015246;28;20040;-84
2023/04/25 08:18:45;;;;;;;7.30;1.75;;;8.60;99.90;;;;;;5014796;28;20105;-84
2023/04/25 08:21:12;;;;;;;5.25;1.58;;;9.30;99.90;;;;;;5014302;28;20026;-85
2023/04/25 08:23:38;;;;;;;6.55;1.48;;;8.60;99.90;;;;;;5015429;28;20026;-85
2023/04/25 08:26:04;;;;;;;12.38;1.58;;;8.60;99.90;;;;;;5023609;28;20053;-84
2023/04/25 08:28:30;;;;;;;8.95;1.25;;;9.10;99.90;;;;;;5022804;28;20378;-85
2023/04/25 08:30:56;;;;;;;10.05;2.28;;;8.70;99.90;;;;;;5000790;28;20029;-85
2023/04/25 08:33:22;;;;;;;8.45;1.85;;;8.70;99.90;;;;;;5013608;28;20030;-84
2023/04/25 08:35:47;;;;;;;5.57;1.63;;;8.90;99.90;;;;;;5010803;28;20026;-85
2023/04/25 08:38:13;;;;;;;5.22;1.92;;;9.00;99.90;;;;;;4998786;28;20133;-87
2023/04/25 08:40:39;;;;;;;8.90;1.58;;;9.00;99.90;;;;;;4997067;28;20098;-85
2023/04/25 08:43:11;;;;;;;7.20;1.75;;;9.00;99.90;;;;;;5004010;28;20027;-86
2023/04/25 08:45:40;;;;;;;7.03;1.45;;;9.10;99.90;;;;;;4999180;28;20581;-85
2023/04/25 08:48:10;;;;;;;4.67;1.23;;;9.10;99.90;;;;;;4994589;28;20399;-84
2023/04/25 08:50:39;;;;;;;4.50;1.00;;;9.20;99.90;;;;;;4996966;28;20108;-87
2023/04/25 08:53:08;;;;;;;10.75;1.75;;;9.20;99.90;;;;;;4996105;28;20034;-85
2023/04/25 08:55:37;;;;;;;9.27;2.60;;;9.30;99.90;;;;;;5003958;28;20050;-85
2023/04/25 08:58:05;;;;;;;3.65;1.10;;;9.30;99.90;;;;;;4999858;28;20044;-85
2023/04/25 09:00:31;;;;;;;6.90;1.40;;;9.20;99.90;;;;;;4994347;28;20025;-84
2023/04/25 09:02:58;;;;;;;6.00;1.08;;;9.20;99.90;;;;;;4999424;28;20034;-84
2023/04/25 09:05:24;;;;;;;6.90;1.80;;;9.20;99.90;;;;;;4999571;28;20076;-85
2023/04/25 09:07:50;;;;;;;5.53;1.50;;;9.10;99.90;;;;;;5000326;28;20084;-84
2023/04/25 09:10:15;;;;;;;13.25;1.20;;;9.10;99.90;;;;;;4994068;28;20062;-84
2023/04/25 09:12:41;;;;;;;6.60;1.25;;;9.20;99.90;;;;;;4994835;28;20034;-85
2023/04/25 09:15:12;;;;;;;5.75;1.15;;;9.10;99.90;;;;;;4997374;28;20109;-85
2023/04/25 09:17:40;;;;;;;4.55;1.58;;;9.20;99.90;;;;;;4993755;28;20506;-84
2023/04/25 09:20:07;;;;;;;4.25;1.48;;;9.20;99.90;;;;;;4994681;28;20065;-84
2023/04/25 09:22:33;;;;;;;7.63;1.30;;;9.20;99.90;;;;;;5002152;28;20033;-85
2023/04/25 09:25:03;;;;;;;6.18;1.42;;;9.20;99.90;;;;;;5014382;28;20026;-87
2023/04/25 09:27:29;;;;;;;6.05;1.45;;;9.30;99.90;;;;;;5014202;28;20428;-85
2023/04/25 09:30:00;;;;;;;9.38;1.13;;;9.30;99.90;;;;;;5014024;28;20056;-85
2023/04/25 09:32:26;;;;;;;2.30;0.70;;;9.20;99.90;;;;;;5009181;28;20076;-83
2023/04/25 09:34:56;;;;;;;11.05;1.77;;;9.20;99.90;;;;;;5003547;28;20029;-85
2023/04/25 09:37:29;;;;;;;8.77;1.60;;;9.10;99.90;;;;;;5000039;28;20073;-87
2023/04/25 09:39:56;;;;;;;8.02;1.88;;;9.00;99.90;;;;;;5013938;28;20073;-85
2023/04/25 09:42:24;;;;;;;7.47;1.23;;;8.90;99.90;;;;;;5013564;28;20034;-85
2023/04/25 09:44:51;;;;;;;5.90;1.25;;;8.80;99.90;;;;;;5013408;28;20026;-85
2023/04/25 09:47:17;;;;;;;5.85;1.23;;;8.80;99.90;;;;;;5013273;28;20104;-85
2023/04/25 09:49:44;;;;;;;6.97;1.20;;;8.70;99.90;;;;;;5013943;28;20021;-84
2023/04/25 09:52:15;;;;;;;4.25;1.10;;;8.60;99.90;;;;;;5005727;28;20480;-84
2023/04/25 09:54:41;;;;;;;3.40;0.75;;;8.60;99.90;;;;;;5007750;28;20045;-82
2023/04/25 09:57:15;;;;;;;2.58;0.80;;;8.30;99.90;;;;;;5013334;28;20056;-83
2023/04/25 09:59:44;;;;;;;3.35;0.82;;;8.30;99.90;;;;;;5013876;28;20022;-84
2023/04/25 10:02:11;;;;;;;5.50;1.10;;;8.20;99.90;;;;;;5012889;28;20049;-83
2023/04/25 10:04:38;;;;;;;3.05;0.85;;;8.30;99.90;;;;;;5012598;28;20054;-83
2023/04/25 10:07:06;;;;;;;12.20;1.70;;;8.40;99.90;;;;;;5013602;28;20033;-83
2023/04/25 10:09:33;;;;;;;3.28;0.95;;;8.40;99.90;;;;;;5013108;28;20113;-83
2023/04/25 10:12:00;;;;;;;6.35;1.10;;;8.50;99.90;;;;;;5013051;28;20041;-83
2023/04/25 10:14:26;;;;;;;5.85;1.35;;;8.50;99.90;;;;;;5010234;28;20479;-83
2023/04/25 10:16:53;;;;;;;1.75;0.70;;;8.40;99.90;;;;;;4995220;28;20042;-84
2023/04/25 10:19:23;;;;;;;5.20;1.15;;;8.50;99.90;;;;;;4991971;28;20030;-83
2023/04/25 10:21:52;;;;;;;9.20;1.52;;;8.60;99.90;;;;;;4995979;28;20113;-84
2023/04/25 10:24:19;;;;;;;10.80;1.23;;;8.70;99.90;;;;;;5009396;28;20135;-84
2023/04/25 10:26:45;;;;;;;1.95;0.93;;;8.80;99.90;;;;;;5012350;28;20057;-84
2023/04/25 10:29:10;;;;;;;8.27;1.10;;;8.80;99.90;;;;;;5011557;28;20087;-83
2023/04/25 10:31:45;;;;;;;8.55;1.65;;;8.80;99.90;;;;;;5012647;28;20025;-83
2023/04/25 10:34:11;;;;;;;6.10;1.65;;;8.80;99.90;;;;;;5012014;28;20025;-83
2023/04/25 10:36:37;;;;;;;5.35;1.20;;;8.80;99.90;;;;;;5013101;28;20038;-84
2023/04/25 10:39:07;;;;;;;3.90;1.05;;;8.90;99.90;;;;;;5011987;28;20026;-84
2023/04/25 10:41:52;;;;;;;8.40;1.33;;;9.00;99.90;;;;;;5009662;28;20030;-83
2023/04/25 10:44:18;;;;;;;8.45;1.60;;;9.10;99.90;;;;;;5009562;28;20381;-83
2023/04/25 10:46:46;;;;;;;6.35;1.63;;;9.10;99.90;;;;;;5008869;28;20072;-82
2023/04/25 10:49:40;;;;;;;3.75;0.88;;;9.20;99.90;;;;;;5008892;28;20021;-83
2023/04/25 10:52:24;;;;;;;8.00;1.40;;;9.20;99.90;;;;;;5009300;28;20033;-82
2023/04/25 10:54:56;;;;;;;5.78;0.95;;;9.30;99.90;;;;;;5009721;28;20050;-82
2023/04/25 10:57:47;;;;;;;6.85;1.02;;;9.40;99.90;;;;;;5011572;28;20116;-83
2023/04/25 11:00:16;;;;;;;7.95;1.50;;;9.40;99.90;;;;;;5012706;28;20129;-84
2023/04/25 11:02:52;;;;;;;3.88;1.13;;;9.40;99.90;;;;;;5011130;28;20026;-83
2023/04/25 11:05:34;;;;;;;9.20;1.83;;;9.50;99.90;;;;;;5012446;28;20036;-82
2023/04/25 11:08:00;;;;;;;5.25;1.20;;;9.50;99.90;;;;;;5012086;28;20129;-83
2023/04/25 11:10:30;;;;;;;9.55;1.40;;;9.50;99.90;;;;;;5012010;28;20509;-83
2023/04/25 11:12:56;;;;;;;4.93;1.13;;;9.40;99.90;;;;;;5012524;28;20026;-83
2023/04/25 11:15:22;;;;;;;8.20;2.25;;;9.50;99.90;;;;;;5011525;28;20034;-83
2023/04/25 11:17:48;;;;;;;7.80;1.88;;;9.20;99.90;;;;;;5011749;28;20033;-84
2023/04/25 11:20:15;;;;;;;3.53;1.00;;;9.20;99.90;;;;;;5012023;28;20021;-83
2023/04/25 11:22:41;;;;;;;9.63;1.73;;;9.20;99.90;;;;;;5011706;28;20034;-84
2023/04/25 11:25:11;;;;;;;5.45;1.67;;;9.20;99.90;;;;;;5012125;28;20528;-82
2023/04/25 11:27:53;;;;;;;3.95;1.02;;;9.10;99.90;;;;;;5011523;28;20030;-83
2023/04/25 11:30:20;;;;;;;6.72;1.67;;;9.10;99.90;;;;;;5011359;28;20044;-83
2023/04/25 11:32:46;;;;;;;7.38;1.17;;;9.10;99.90;;;;;;5011270;28;20049;-82
2023/04/25 11:35:13;;;;;;;7.97;1.95;;;9.10;99.90;;;;;;5000995;28;20026;-83
2023/04/25 11:37:40;;;;;;;4.50;1.90;;;9.10;99.90;;;;;;4991494;28;20053;-83
2023/04/25 11:40:06;;;;;;;9.07;2.30;;;9.20;99.90;;;;;;5002299;28;20061;-82
2023/04/25 11:42:35;;;;;;;6.70;1.13;;;9.40;99.90;;;;;;5004028;28;20034;-82
2023/04/25 11:45:02;;;;;;;9.80;2.05;;;9.40;99.90;;;;;;5003075;28;20025;-82
2023/04/25 11:47:30;;;;;;;6.75;1.33;;;9.90;99.90;;;;;;5005064;28;20156;-81
2023/04/25 11:49:58;;;;;;;9.18;1.95;;;9.40;99.90;;;;;;4995942;28;20581;-82
2023/04/25 11:52:24;;;;;;;7.50;1.15;;;9.50;99.90;;;;;;4996111;28;20041;-82
2023/04/25 11:54:49;;;;;;;5.88;1.23;;;9.50;99.90;;;;;;4996331;28;20042;-83
2023/04/25 11:57:19;;;;;;;5.45;1.38;;;9.60;99.90;;;;;;4995593;28;20038;-83
2023/04/25 11:59:45;;;;;;;9.30;1.77;;;9.60;99.90;;;;;;4998233;28;20490;-82
2023/04/25 12:02:25;;;;;;;7.35;1.50;;;9.60;99.90;;;;;;4997250;28;20072;-83
2023/04/25 12:04:50;;;;;;;5.07;1.73;;;9.50;99.90;;;;;;4995295;28;20022;-82
2023/04/25 12:07:16;;;;;;;14.23;3.13;;;9.50;99.90;;;;;;4996056;28;20037;-83
2023/04/25 12:09:41;;;;;;;5.25;1.10;;;9.50;99.90;;;;;;4995818;28;20022;-83
2023/04/25 12:12:10;;;;;;;11.10;1.33;;;9.60;99.90;;;;;;4993563;28;20113;-83
2023/04/25 12:14:36;;;;;;;7.63;1.67;;;10.30;99.90;;;;;;4994373;28;20018;-83
2023/04/25 12:17:03;;;;;;;4.80;1.30;;;10.00;99.90;;;;;;4993915;28;20030;-83
2023/04/25 12:19:34;;;;;;;14.73;1.75;;;9.70;99.90;;;;;;4993332;28;20026;-82
2023/04/25 12:22:01;;;;;;;5.50;1.42;;;9.80;99.90;;;;;;4993863;28;20026;-81
2023/04/25 12:24:28;;;;;;;9.23;1.60;;;9.80;99.90;;;;;;4994566;28;20084;-82
2023/04/25 12:26:58;;;;;;;4.30;1.45;;;9.80;99.90;;;;;;4996606;28;20378;-82
2023/04/25 12:29:26;;;;;;;5.28;1.23;;;9.70;99.90;;;;;;4995759;28;20481;-84
2023/04/25 12:31:54;;;;;;;8.63;1.42;;;9.80;99.90;;;;;;4995833;28;20121;-82
2023/04/25 12:34:20;;;;;;;4.70;0.80;;;9.80;99.90;;;;;;4994967;28;20026;-81
2023/04/25 12:36:46;;;;;;;6.80;1.35;;;9.90;99.90;;;;;;4995628;28;20042;-82
2023/04/25 12:39:23;;;;;;;6.85;1.70;;;9.90;99.90;;;;;;4995066;28;20093;-82
2023/04/25 12:41:49;;;;;;;4.20;1.00;;;10.00;99.90;;;;;;4996054;28;20027;-81
2023/04/25 12:44:15;;;;;;;11.07;1.92;;;10.00;99.90;;;;;;4996563;28;20105;-82
2023/04/25 12:46:41;;;;;;;5.25;0.98;;;10.10;99.90;;;;;;4994645;28;20106;-82
2023/04/25 12:49:08;;;;;;;6.97;1.05;;;10.10;99.90;;;;;;4995081;28;20030;-82
2023/04/25 12:51:36;;;;;;;4.10;1.30;;;10.10;99.90;;;;;;4995238;28;20398;-82